sensor_id;sensor_type;location;lat;lon;timestamp;temperature;humidity
59234;DHT22;60776;51.702;7.462;2023-09-19T00:02:18;18.20;99.90
59234;DHT22;60776;51.702;7.462;2023-09-19T00:04:44;18.10;99.90
59234;DHT22;60776;51.702;7.462;2023-09-19T00:07:10;18.10;99.90
59234;DHT22;60776;51.702;7.462;2023-09-19T00:09:35;18.10;99.90
59234;DHT22;60776;51.702;7.462;2023-09-19T00:12:06;18.10;99.90
59234;DHT22;60776;51.702;7.462;2023-09-19T00:14:32;18.10;99.90
59234;DHT22;60776;51.702;7.462;2023-09-19T00:17:04;18.00;99.90
59234;DHT22;60776;51.702;7.462;2023-09-19T00:19:35;18.00;99.90
59234;DHT22;60776;51.702;7.462;2023-09-19T00:22:01;18.00;99.90
59234;DHT22;60776;51.702;7.462;2023-09-19T00:24:27;18.00;99.90
59234;DHT22;60776;51.702;7.462;2023-09-19T00:26:53;18.00;99.90
59234;DHT22;60776;51.702;7.462;2023-09-19T00:29:21;18.00;99.90
59234;DHT22;60776;51.702;7.462;2023-09-19T00:31:46;18.00;99.90
59234;DHT22;60776;51.702;7.462;2023-09-19T00:34:12;18.00;99.90
59234;DHT22;60776;51.702;7.462;2023-09-19T00:36:38;18.00;99.90
59234;DHT22;60776;51.702;7.462;2023-09-19T00:39:08;18.00;99.90
59234;DHT22;60776;51.702;7.462;2023-09-19T00:41:35;18.00;99.90
59234;DHT22;60776;51.702;7.462;2023-09-19T00:44:02;17.90;99.90
59234;DHT22;60776;51.702;7.462;2023-09-19T00:46:31;17.90;99.90
59234;DHT22;60776;51.702;7.462;2023-09-19T00:48:58;17.90;99.90
59234;DHT22;60776;51.702;7.462;2023-09-19T00:51:25;18.00;99.90
59234;DHT22;60776;51.702;7.462;2023-09-19T00:53:52;18.00;99.90
59234;DHT22;60776;51.702;7.462;2023-09-19T00:56:18;18.10;99.90
59234;DHT22;60776;51.702;7.462;2023-09-19T00:58:45;18.10;99.90
59234;DHT22;60776;51.702;7.462;2023-09-19T01:01:12;18.10;99.90
59234;DHT22;60776;51.702;7.462;2023-09-19T01:03:43;18.00;99.90
59234;DHT22;60776;51.702;7.462;2023-09-19T01:06:09;18.10;99.90
59234;DHT22;60776;51.702;7.462;2023-09-19T01:08:36;18.10;99.90
59234;DHT22;60776;51.702;7.462;2023-09-19T01:11:43;18.10;99.90
59234;DHT22;60776;51.702;7.462;2023-09-19T01:14:15;18.00;99.90
59234;DHT22;60776;51.702;7.462;2023-09-19T01:22:29;17.90;99.90
59234;DHT22;60776;51.702;7.462;2023-09-19T01:30:14;17.80;99.90
59234;DHT22;60776;51.702;7.462;2023-09-19T01:32:40;17.80;99.90
59234;DHT22;60776;51.702;7.462;2023-09-19T01:35:06;17.80;99.90
59234;DHT22;60776;51.702;7.462;2023-09-19T01:37:39;17.80;99.90
59234;DHT22;60776;51.702;7.462;2023-09-19T01:40:10;17.90;99.90
59234;DHT22;60776;51.702;7.462;2023-09-19T01:51:42;18.00;99.90
59234;DHT22;60776;51.702;7.462;2023-09-19T01:54:12;18.00;99.90
59234;DHT22;60776;51.702;7.462;2023-09-19T01:59:34;17.70;99.90
59234;DHT22;60776;51.702;7.462;2023-09-19T02:02:01;17.60;99.90
59234;DHT22;60776;51.702;7.462;2023-09-19T02:04:27;17.50;99.90
59234;DHT22;60776;51.702;7.462;2023-09-19T02:06:53;17.40;99.90
59234;DHT22;60776;51.702;7.462;2023-09-19T02:09:21;17.40;99.90
59234;DHT22;60776;51.702;7.462;2023-09-19T02:11:46;17.40;99.90
59234;DHT22;60776;51.702;7.462;2023-09-19T02:14:12;17.30;99.90
59234;DHT22;60776;51.702;7.462;2023-09-19T02:16:39;17.20;99.90
59234;DHT22;60776;51.702;7.462;2023-09-19T02:19:04;17.20;99.90
59234;DHT22;60776;51.702;7.462;2023-09-19T02:21:31;17.10;99.90
59234;DHT22;60776;51.702;7.462;2023-09-19T02:23:57;17.00;99.90
59234;DHT22;60776;51.702;7.462;2023-09-19T02:26:24;17.10;99.90
59234;DHT22;60776;51.702;7.462;2023-09-19T02:28:50;17.00;99.90
59234;DHT22;60776;51.702;7.462;2023-09-19T02:31:15;17.00;99.90
59234;DHT22;60776;51.702;7.462;2023-09-19T02:33:42;17.00;99.90
59234;DHT22;60776;51.702;7.462;2023-09-19T02:36:08;16.90;99.90
59234;DHT22;60776;51.702;7.462;2023-09-19T02:38:34;16.80;99.90
59234;DHT22;60776;51.702;7.462;2023-09-19T02:41:00;16.80;99.90
59234;DHT22;60776;51.702;7.462;2023-09-19T02:43:26;16.80;99.90
59234;DHT22;60776;51.702;7.462;2023-09-19T02:45:52;16.80;99.90
59234;DHT22;60776;51.702;7.462;2023-09-19T02:48:22;16.80;99.90
59234;DHT22;60776;51.702;7.462;2023-09-19T02:50:50;16.80;99.90
59234;DHT22;60776;51.702;7.462;2023-09-19T02:53:16;16.70;99.90
59234;DHT22;60776;51.702;7.462;2023-09-19T02:55:42;16.70;99.90
59234;DHT22;60776;51.702;7.462;2023-09-19T02:58:08;16.70;99.90
59234;DHT22;60776;51.702;7.462;2023-09-19T03:00:36;16.60;99.90
59234;DHT22;60776;51.702;7.462;2023-09-19T03:03:02;16.60;99.90
59234;DHT22;60776;51.702;7.462;2023-09-19T03:05:28;16.50;99.90
59234;DHT22;60776;51.702;7.462;2023-09-19T03:07:57;16.50;99.90
59234;DHT22;60776;51.702;7.462;2023-09-19T03:10:26;16.50;99.90
59234;DHT22;60776;51.702;7.462;2023-09-19T03:12:52;16.50;99.90
59234;DHT22;60776;51.702;7.462;2023-09-19T03:15:17;16.40;99.90
59234;DHT22;60776;51.702;7.462;2023-09-19T03:17:48;16.40;99.90
59234;DHT22;60776;51.702;7.462;2023-09-19T03:20:14;16.50;99.90
59234;DHT22;60776;51.702;7.462;2023-09-19T03:22:43;16.50;99.90
59234;DHT22;60776;51.702;7.462;2023-09-19T03:25:09;16.50;99.90
59234;DHT22;60776;51.702;7.462;2023-09-19T03:27:37;16.40;99.90
59234;DHT22;60776;51.702;7.462;2023-09-19T03:30:04;16.50;99.90
59234;DHT22;60776;51.702;7.462;2023-09-19T03:32:37;16.50;99.90
59234;DHT22;60776;51.702;7.462;2023-09-19T03:35:03;16.50;99.90
59234;DHT22;60776;51.702;7.462;2023-09-19T03:37:31;16.50;99.90
59234;DHT22;60776;51.702;7.462;2023-09-19T03:39:57;16.50;99.90
59234;DHT22;60776;51.702;7.462;2023-09-19T03:42:23;16.40;99.90
59234;DHT22;60776;51.702;7.462;2023-09-19T03:44:51;16.40;99.90
59234;DHT22;60776;51.702;7.462;2023-09-19T03:47:18;16.40;99.90
59234;DHT22;60776;51.702;7.462;2023-09-19T03:49:44;16.40;99.90
59234;DHT22;60776;51.702;7.462;2023-09-19T03:52:10;16.40;99.90
59234;DHT22;60776;51.702;7.462;2023-09-19T03:54:36;16.40;99.90
59234;DHT22;60776;51.702;7.462;2023-09-19T03:57:02;16.40;99.90
59234;DHT22;60776;51.702;7.462;2023-09-19T03:59:30;16.30;99.90
59234;DHT22;60776;51.702;7.462;2023-09-19T04:01:55;16.30;99.90
59234;DHT22;60776;51.702;7.462;2023-09-19T04:04:22;16.20;99.90
59234;DHT22;60776;51.702;7.462;2023-09-19T04:06:50;16.20;99.90
59234;DHT22;60776;51.702;7.462;2023-09-19T04:09:16;16.20;99.90
59234;DHT22;60776;51.702;7.462;2023-09-19T04:11:42;16.10;99.90
59234;DHT22;60776;51.702;7.462;2023-09-19T04:14:08;16.10;99.90
59234;DHT22;60776;51.702;7.462;2023-09-19T04:16:33;16.10;99.90
59234;DHT22;60776;51.702;7.462;2023-09-19T04:18:59;16.10;99.90
59234;DHT22;60776;51.702;7.462;2023-09-19T04:21:24;16.10;99.90
59234;DHT22;60776;51.702;7.462;2023-09-19T04:23:52;16.10;99.90
59234;DHT22;60776;51.702;7.462;2023-09-19T04:26:17;16.00;99.90
59234;DHT22;60776;51.702;7.462;2023-09-19T04:28:43;16.00;99.90
59234;DHT22;60776;51.702;7.462;2023-09-19T04:31:09;16.00;99.90
59234;DHT22;60776;51.702;7.462;2023-09-19T04:33:37;15.90;99.90
59234;DHT22;60776;51.702;7.462;2023-09-19T04:36:03;15.90;99.90
59234;DHT22;60776;51.702;7.462;2023-09-19T04:38:33;15.90;99.90
59234;DHT22;60776;51.702;7.462;2023-09-19T04:40:58;15.90;99.90
59234;DHT22;60776;51.702;7.462;2023-09-19T04:43:25;15.90;99.90
59234;DHT22;60776;51.702;7.462;2023-09-19T04:45:50;15.90;99.90
59234;DHT22;60776;51.702;7.462;2023-09-19T04:48:19;15.90;99.90
59234;DHT22;60776;51.702;7.462;2023-09-19T04:50:45;15.90;99.90
59234;DHT22;60776;51.702;7.462;2023-09-19T04:53:10;15.80;99.90
59234;DHT22;60776;51.702;7.462;2023-09-19T04:55:36;15.80;99.90
59234;DHT22;60776;51.702;7.462;2023-09-19T04:58:02;15.80;99.90
59234;DHT22;60776;51.702;7.462;2023-09-19T05:00:28;15.80;99.90
59234;DHT22;60776;51.702;7.462;2023-09-19T05:02:56;15.90;99.90
59234;DHT22;60776;51.702;7.462;2023-09-19T05:05:23;15.90;99.90
59234;DHT22;60776;51.702;7.462;2023-09-19T05:07:51;15.90;99.90
59234;DHT22;60776;51.702;7.462;2023-09-19T05:10:19;15.90;99.90
59234;DHT22;60776;51.702;7.462;2023-09-19T05:12:45;15.90;99.90
59234;DHT22;60776;51.702;7.462;2023-09-19T05:15:13;15.90;99.90
59234;DHT22;60776;51.702;7.462;2023-09-19T05:17:47;16.00;99.90
59234;DHT22;60776;51.702;7.462;2023-09-19T05:20:12;16.00;99.90
59234;DHT22;60776;51.702;7.462;2023-09-19T05:23:03;16.00;99.90
59234;DHT22;60776;51.702;7.462;2023-09-19T05:25:35;16.00;99.90
59234;DHT22;60776;51.702;7.462;2023-09-19T05:28:05;16.00;99.90
59234;DHT22;60776;51.702;7.462;2023-09-19T05:30:32;16.10;99.90
59234;DHT22;60776;51.702;7.462;2023-09-19T05:32:58;16.10;99.90
59234;DHT22;60776;51.702;7.462;2023-09-19T05:35:24;16.10;99.90
59234;DHT22;60776;51.702;7.462;2023-09-19T05:37:54;16.20;99.90
59234;DHT22;60776;51.702;7.462;2023-09-19T05:40:21;16.30;99.90
59234;DHT22;60776;51.702;7.462;2023-09-19T05:42:46;16.30;99.90
59234;DHT22;60776;51.702;7.462;2023-09-19T05:45:13;16.30;99.90
59234;DHT22;60776;51.702;7.462;2023-09-19T05:47:40;16.30;99.90
59234;DHT22;60776;51.702;7.462;2023-09-19T05:50:11;16.40;99.90
59234;DHT22;60776;51.702;7.462;2023-09-19T05:52:37;16.40;99.90
59234;DHT22;60776;51.702;7.462;2023-09-19T05:55:06;16.40;99.90
59234;DHT22;60776;51.702;7.462;2023-09-19T05:57:33;16.50;99.90
59234;DHT22;60776;51.702;7.462;2023-09-19T05:59:59;16.50;99.90
59234;DHT22;60776;51.702;7.462;2023-09-19T06:02:25;16.60;99.90
59234;DHT22;60776;51.702;7.462;2023-09-19T06:04:56;16.70;99.90
59234;DHT22;60776;51.702;7.462;2023-09-19T06:07:22;16.70;99.90
59234;DHT22;60776;51.702;7.462;2023-09-19T06:09:51;16.70;99.90
59234;DHT22;60776;51.702;7.462;2023-09-19T06:12:19;16.80;99.90
59234;DHT22;60776;51.702;7.462;2023-09-19T06:14:44;16.80;99.90
59234;DHT22;60776;51.702;7.462;2023-09-19T06:17:10;16.80;99.90
59234;DHT22;60776;51.702;7.462;2023-09-19T06:19:36;16.80;99.90
59234;DHT22;60776;51.702;7.462;2023-09-19T06:22:02;16.90;99.90
59234;DHT22;60776;51.702;7.462;2023-09-19T06:24:27;17.00;99.90
59234;DHT22;60776;51.702;7.462;2023-09-19T06:26:53;17.00;99.90
59234;DHT22;60776;51.702;7.462;2023-09-19T06:29:20;17.10;99.90
59234;DHT22;60776;51.702;7.462;2023-09-19T06:31:48;17.10;99.90
59234;DHT22;60776;51.702;7.462;2023-09-19T06:34:14;17.20;99.90
59234;DHT22;60776;51.702;7.462;2023-09-19T06:36:41;17.30;99.90
59234;DHT22;60776;51.702;7.462;2023-09-19T06:39:07;17.30;99.90
59234;DHT22;60776;51.702;7.462;2023-09-19T06:41:37;17.40;99.90
59234;DHT22;60776;51.702;7.462;2023-09-19T06:44:04;17.40;99.90
59234;DHT22;60776;51.702;7.462;2023-09-19T06:46:30;17.50;99.90
59234;DHT22;60776;51.702;7.462;2023-09-19T06:49:00;17.60;99.90
59234;DHT22;60776;51.702;7.462;2023-09-19T06:51:26;17.80;99.90
59234;DHT22;60776;51.702;7.462;2023-09-19T06:53:51;17.80;99.90
59234;DHT22;60776;51.702;7.462;2023-09-19T06:56:19;17.90;99.90
59234;DHT22;60776;51.702;7.462;2023-09-19T06:58:48;18.00;99.90
59234;DHT22;60776;51.702;7.462;2023-09-19T07:01:14;18.00;99.90
59234;DHT22;60776;51.702;7.462;2023-09-19T07:03:40;18.00;99.90
59234;DHT22;60776;51.702;7.462;2023-09-19T07:06:06;18.10;99.90
59234;DHT22;60776;51.702;7.462;2023-09-19T07:08:32;18.20;99.90
59234;DHT22;60776;51.702;7.462;2023-09-19T07:10:58;18.20;99.90
59234;DHT22;60776;51.702;7.462;2023-09-19T07:13:23;18.40;99.90
59234;DHT22;60776;51.702;7.462;2023-09-19T07:15:50;18.60;99.90
59234;DHT22;60776;51.702;7.462;2023-09-19T07:18:17;18.80;99.90
59234;DHT22;60776;51.702;7.462;2023-09-19T07:20:44;19.10;99.90
59234;DHT22;60776;51.702;7.462;2023-09-19T07:23:21;19.30;99.90
59234;DHT22;60776;51.702;7.462;2023-09-19T07:25:48;19.50;99.90
59234;DHT22;60776;51.702;7.462;2023-09-19T07:28:14;19.70;99.90
59234;DHT22;60776;51.702;7.462;2023-09-19T07:30:40;20.00;99.90
59234;DHT22;60776;51.702;7.462;2023-09-19T07:33:09;20.20;99.90
59234;DHT22;60776;51.702;7.462;2023-09-19T07:35:39;20.40;99.90
59234;DHT22;60776;51.702;7.462;2023-09-19T07:38:08;20.60;99.90
59234;DHT22;60776;51.702;7.462;2023-09-19T07:40:35;20.70;99.90
59234;DHT22;60776;51.702;7.462;2023-09-19T07:43:02;20.90;99.90
59234;DHT22;60776;51.702;7.462;2023-09-19T07:45:28;21.20;99.90
59234;DHT22;60776;51.702;7.462;2023-09-19T07:47:55;21.30;99.90
59234;DHT22;60776;51.702;7.462;2023-09-19T07:50:21;21.40;99.90
59234;DHT22;60776;51.702;7.462;2023-09-19T07:52:48;21.40;99.90
59234;DHT22;60776;51.702;7.462;2023-09-19T07:55:16;21.40;99.90
59234;DHT22;60776;51.702;7.462;2023-09-19T07:57:43;21.40;99.90
59234;DHT22;60776;51.702;7.462;2023-09-19T08:00:11;21.50;99.90
59234;DHT22;60776;51.702;7.462;2023-09-19T08:02:37;21.60;99.90
59234;DHT22;60776;51.702;7.462;2023-09-19T08:05:03;21.70;99.90
59234;DHT22;60776;51.702;7.462;2023-09-19T08:07:32;21.90;99.90
59234;DHT22;60776;51.702;7.462;2023-09-19T08:09:58;22.10;99.90
59234;DHT22;60776;51.702;7.462;2023-09-19T08:12:24;22.10;99.90
59234;DHT22;60776;51.702;7.462;2023-09-19T08:14:50;22.30;99.90
59234;DHT22;60776;51.702;7.462;2023-09-19T08:17:16;22.40;99.90
59234;DHT22;60776;51.702;7.462;2023-09-19T08:19:42;22.40;99.90
59234;DHT22;60776;51.702;7.462;2023-09-19T08:22:10;22.70;99.90
59234;DHT22;60776;51.702;7.462;2023-09-19T08:24:36;22.90;99.90
59234;DHT22;60776;51.702;7.462;2023-09-19T08:27:04;23.10;99.90
59234;DHT22;60776;51.702;7.462;2023-09-19T08:29:30;23.10;99.90
59234;DHT22;60776;51.702;7.462;2023-09-19T08:31:59;23.20;99.90
59234;DHT22;60776;51.702;7.462;2023-09-19T08:34:25;23.20;99.90
59234;DHT22;60776;51.702;7.462;2023-09-19T08:36:55;23.50;99.90
59234;DHT22;60776;51.702;7.462;2023-09-19T08:39:26;23.40;98.90
59234;DHT22;60776;51.702;7.462;2023-09-19T08:42:02;23.30;99.60
59234;DHT22;60776;51.702;7.462;2023-09-19T08:44:28;23.40;98.50
59234;DHT22;60776;51.702;7.462;2023-09-19T08:47:16;23.70;99.20
59234;DHT22;60776;51.702;7.462;2023-09-19T08:49:58;23.50;97.70
59234;DHT22;60776;51.702;7.462;2023-09-19T08:52:31;23.70;97.50
59234;DHT22;60776;51.702;7.462;2023-09-19T08:55:01;23.90;97.80
59234;DHT22;60776;51.702;7.462;2023-09-19T08:57:33;24.20;95.90
59234;DHT22;60776;51.702;7.462;2023-09-19T09:00:04;24.50;94.70
59234;DHT22;60776;51.702;7.462;2023-09-19T09:02:38;24.80;94.40
59234;DHT22;60776;51.702;7.462;2023-09-19T09:05:10;25.30;93.70
59234;DHT22;60776;51.702;7.462;2023-09-19T09:07:43;25.70;92.30
59234;DHT22;60776;51.702;7.462;2023-09-19T09:10:10;26.10;91.40
59234;DHT22;60776;51.702;7.462;2023-09-19T09:12:36;26.30;88.80
59234;DHT22;60776;51.702;7.462;2023-09-19T09:15:06;26.40;85.10
59234;DHT22;60776;51.702;7.462;2023-09-19T09:17:34;26.40;83.00
59234;DHT22;60776;51.702;7.462;2023-09-19T09:20:00;26.80;83.30
59234;DHT22;60776;51.702;7.462;2023-09-19T09:22:25;26.80;79.90
59234;DHT22;60776;51.702;7.462;2023-09-19T09:24:56;26.90;78.60
59234;DHT22;60776;51.702;7.462;2023-09-19T09:27:29;27.10;77.80
59234;DHT22;60776;51.702;7.462;2023-09-19T09:29:54;27.00;75.70
59234;DHT22;60776;51.702;7.462;2023-09-19T09:32:21;27.20;74.90
59234;DHT22;60776;51.702;7.462;2023-09-19T09:34:57;27.30;75.40
59234;DHT22;60776;51.702;7.462;2023-09-19T09:37:23;27.70;75.00
59234;DHT22;60776;51.702;7.462;2023-09-19T09:39:55;27.50;74.10
59234;DHT22;60776;51.702;7.462;2023-09-19T09:42:35;27.60;72.70
59234;DHT22;60776;51.702;7.462;2023-09-19T09:45:20;28.00;70.10
59234;DHT22;60776;51.702;7.462;2023-09-19T09:48:16;27.90;68.70
59234;DHT22;60776;51.702;7.462;2023-09-19T09:50:57;28.00;68.90
59234;DHT22;60776;51.702;7.462;2023-09-19T09:53:27;27.80;66.10
59234;DHT22;60776;51.702;7.462;2023-09-19T09:56:03;27.70;66.20
59234;DHT22;60776;51.702;7.462;2023-09-19T09:58:40;28.30;68.00
59234;DHT22;60776;51.702;7.462;2023-09-19T10:01:14;29.00;64.90
59234;DHT22;60776;51.702;7.462;2023-09-19T10:03:42;28.80;62.10
59234;DHT22;60776;51.702;7.462;2023-09-19T10:06:15;28.90;63.50
59234;DHT22;60776;51.702;7.462;2023-09-19T10:09:08;29.00;61.20
59234;DHT22;60776;51.702;7.462;2023-09-19T10:11:59;29.50;59.50
59234;DHT22;60776;51.702;7.462;2023-09-19T10:14:30;30.20;59.20
59234;DHT22;60776;51.702;7.462;2023-09-19T10:16:58;30.50;58.00
59234;DHT22;60776;51.702;7.462;2023-09-19T10:19:54;30.40;57.90
59234;DHT22;60776;51.702;7.462;2023-09-19T10:22:24;30.60;55.90
59234;DHT22;60776;51.702;7.462;2023-09-19T10:24:53;30.80;56.80
59234;DHT22;60776;51.702;7.462;2023-09-19T10:27:21;30.90;54.70
59234;DHT22;60776;51.702;7.462;2023-09-19T10:29:49;30.70;54.30
59234;DHT22;60776;51.702;7.462;2023-09-19T10:32:19;30.50;54.40
59234;DHT22;60776;51.702;7.462;2023-09-19T10:34:52;31.20;53.60
59234;DHT22;60776;51.702;7.462;2023-09-19T10:37:34;31.60;50.90
59234;DHT22;60776;51.702;7.462;2023-09-19T10:40:04;31.90;52.50
59234;DHT22;60776;51.702;7.462;2023-09-19T10:42:37;32.70;49.80
59234;DHT22;60776;51.702;7.462;2023-09-19T10:45:04;32.90;48.70
59234;DHT22;60776;51.702;7.462;2023-09-19T10:47:38;33.20;49.20
59234;DHT22;60776;51.702;7.462;2023-09-19T10:50:07;34.10;48.40
59234;DHT22;60776;51.702;7.462;2023-09-19T10:52:45;34.60;47.90
59234;DHT22;60776;51.702;7.462;2023-09-19T10:55:22;34.90;45.10
59234;DHT22;60776;51.702;7.462;2023-09-19T10:57:49;35.40;45.60
59234;DHT22;60776;51.702;7.462;2023-09-19T11:00:15;36.00;44.50
59234;DHT22;60776;51.702;7.462;2023-09-19T11:05:42;35.80;41.90
59234;DHT22;60776;51.702;7.462;2023-09-19T11:08:09;35.70;42.50
59234;DHT22;60776;51.702;7.462;2023-09-19T11:10:50;35.60;43.00
59234;DHT22;60776;51.702;7.462;2023-09-19T11:26:43;34.90;42.40
59234;DHT22;60776;51.702;7.462;2023-09-19T11:29:28;35.40;42.00
59234;DHT22;60776;51.702;7.462;2023-09-19T11:31:55;35.40;40.20
59234;DHT22;60776;51.702;7.462;2023-09-19T11:34:37;35.40;40.70
59234;DHT22;60776;51.702;7.462;2023-09-19T11:40:08;34.30;41.10
59234;DHT22;60776;51.702;7.462;2023-09-19T11:42:45;34.60;41.80
59234;DHT22;60776;51.702;7.462;2023-09-19T11:48:15;36.10;39.80
59234;DHT22;60776;51.702;7.462;2023-09-19T11:50:46;36.70;40.00
59234;DHT22;60776;51.702;7.462;2023-09-19T11:53:13;37.10;39.70
59234;DHT22;60776;51.702;7.462;2023-09-19T11:55:41;36.30;39.10
59234;DHT22;60776;51.702;7.462;2023-09-19T11:58:12;34.90;40.00
59234;DHT22;60776;51.702;7.462;2023-09-19T12:00:40;34.70;40.80
59234;DHT22;60776;51.702;7.462;2023-09-19T12:03:11;33.70;41.10
59234;DHT22;60776;51.702;7.462;2023-09-19T12:05:39;32.50;42.00
59234;DHT22;60776;51.702;7.462;2023-09-19T12:08:07;32.20;43.60
59234;DHT22;60776;51.702;7.462;2023-09-19T12:11:04;32.30;44.40
59234;DHT22;60776;51.702;7.462;2023-09-19T12:13:36;33.10;43.30
59234;DHT22;60776;51.702;7.462;2023-09-19T12:18:45;32.90;43.10
59234;DHT22;60776;51.702;7.462;2023-09-19T12:21:28;32.80;43.80
59234;DHT22;60776;51.702;7.462;2023-09-19T12:24:22;33.20;44.10
59234;DHT22;60776;51.702;7.462;2023-09-19T12:26:47;32.90;42.50
59234;DHT22;60776;51.702;7.462;2023-09-19T12:29:21;32.40;43.30
59234;DHT22;60776;51.702;7.462;2023-09-19T12:31:54;31.60;44.40
59234;DHT22;60776;51.702;7.462;2023-09-19T12:34:27;31.20;45.10
59234;DHT22;60776;51.702;7.462;2023-09-19T12:37:12;31.20;45.70
59234;DHT22;60776;51.702;7.462;2023-09-19T12:39:42;31.90;44.20
59234;DHT22;60776;51.702;7.462;2023-09-19T12:42:12;32.70;44.40
59234;DHT22;60776;51.702;7.462;2023-09-19T12:44:42;33.50;43.90
59234;DHT22;60776;51.702;7.462;2023-09-19T12:47:17;34.40;41.50
59234;DHT22;60776;51.702;7.462;2023-09-19T12:52:40;34.40;40.10
59234;DHT22;60776;51.702;7.462;2023-09-19T12:55:06;34.70;41.30
59234;DHT22;60776;51.702;7.462;2023-09-19T12:57:36;34.80;39.60
59234;DHT22;60776;51.702;7.462;2023-09-19T13:00:03;34.40;39.90
59234;DHT22;60776;51.702;7.462;2023-09-19T13:02:31;33.70;41.10
59234;DHT22;60776;51.702;7.462;2023-09-19T13:04:58;33.60;40.70
59234;DHT22;60776;51.702;7.462;2023-09-19T13:07:45;33.10;41.80
59234;DHT22;60776;51.702;7.462;2023-09-19T13:10:15;32.80;41.70
59234;DHT22;60776;51.702;7.462;2023-09-19T13:12:44;32.40;41.90
59234;DHT22;60776;51.702;7.462;2023-09-19T13:15:13;31.60;42.50
59234;DHT22;60776;51.702;7.462;2023-09-19T13:17:49;30.90;43.50
59234;DHT22;60776;51.702;7.462;2023-09-19T13:20:26;30.00;44.20
59234;DHT22;60776;51.702;7.462;2023-09-19T13:22:57;29.20;45.90
59234;DHT22;60776;51.702;7.462;2023-09-19T13:25:33;28.80;47.40
59234;DHT22;60776;51.702;7.462;2023-09-19T13:28:00;28.40;47.60
59234;DHT22;60776;51.702;7.462;2023-09-19T13:30:29;28.20;48.00
59234;DHT22;60776;51.702;7.462;2023-09-19T13:33:10;28.00;48.10
59234;DHT22;60776;51.702;7.462;2023-09-19T13:35:37;27.70;49.10
59234;DHT22;60776;51.702;7.462;2023-09-19T13:38:06;27.40;49.00
59234;DHT22;60776;51.702;7.462;2023-09-19T13:40:35;26.90;49.50
59234;DHT22;60776;51.702;7.462;2023-09-19T13:43:03;26.60;50.40
59234;DHT22;60776;51.702;7.462;2023-09-19T13:45:29;26.40;50.50
59234;DHT22;60776;51.702;7.462;2023-09-19T13:47:56;25.90;51.20
59234;DHT22;60776;51.702;7.462;2023-09-19T13:50:22;25.70;51.70
59234;DHT22;60776;51.702;7.462;2023-09-19T13:52:50;25.50;52.60
59234;DHT22;60776;51.702;7.462;2023-09-19T13:55:19;25.40;52.90
59234;DHT22;60776;51.702;7.462;2023-09-19T13:57:49;25.60;53.10
59234;DHT22;60776;51.702;7.462;2023-09-19T14:00:24;25.80;52.80
59234;DHT22;60776;51.702;7.462;2023-09-19T14:02:50;25.80;52.70
59234;DHT22;60776;51.702;7.462;2023-09-19T14:05:16;25.80;52.20
59234;DHT22;60776;51.702;7.462;2023-09-19T14:07:42;25.80;52.50
59234;DHT22;60776;51.702;7.462;2023-09-19T14:10:09;25.90;52.70
59234;DHT22;60776;51.702;7.462;2023-09-19T14:12:39;25.80;52.70
59234;DHT22;60776;51.702;7.462;2023-09-19T14:15:08;25.80;53.10
59234;DHT22;60776;51.702;7.462;2023-09-19T14:17:34;25.70;53.20
59234;DHT22;60776;51.702;7.462;2023-09-19T14:20:00;25.80;52.70
59234;DHT22;60776;51.702;7.462;2023-09-19T14:22:25;25.50;52.50
59234;DHT22;60776;51.702;7.462;2023-09-19T14:24:51;25.30;52.90
59234;DHT22;60776;51.702;7.462;2023-09-19T14:27:18;25.10;53.60
59234;DHT22;60776;51.702;7.462;2023-09-19T14:29:44;25.00;54.00
59234;DHT22;60776;51.702;7.462;2023-09-19T14:32:09;25.10;54.50
59234;DHT22;60776;51.702;7.462;2023-09-19T14:34:35;25.10;54.40
59234;DHT22;60776;51.702;7.462;2023-09-19T14:37:07;25.00;54.60
59234;DHT22;60776;51.702;7.462;2023-09-19T14:39:33;25.00;55.00
59234;DHT22;60776;51.702;7.462;2023-09-19T14:41:59;25.10;55.20
59234;DHT22;60776;51.702;7.462;2023-09-19T14:44:24;25.00;55.10
59234;DHT22;60776;51.702;7.462;2023-09-19T14:46:50;24.90;55.20
59234;DHT22;60776;51.702;7.462;2023-09-19T14:49:16;24.70;55.60
59234;DHT22;60776;51.702;7.462;2023-09-19T14:51:42;24.70;56.20
59234;DHT22;60776;51.702;7.462;2023-09-19T14:54:15;24.60;55.70
59234;DHT22;60776;51.702;7.462;2023-09-19T14:56:44;24.50;56.20
59234;DHT22;60776;51.702;7.462;2023-09-19T14:59:10;24.40;56.30
59234;DHT22;60776;51.702;7.462;2023-09-19T15:01:41;24.20;56.50
59234;DHT22;60776;51.702;7.462;2023-09-19T15:04:07;24.10;56.80
59234;DHT22;60776;51.702;7.462;2023-09-19T15:06:36;24.00;57.20
59234;DHT22;60776;51.702;7.462;2023-09-19T15:09:02;23.90;57.50
59234;DHT22;60776;51.702;7.462;2023-09-19T15:11:30;23.90;57.30
59234;DHT22;60776;51.702;7.462;2023-09-19T15:13:55;23.80;57.70
59234;DHT22;60776;51.702;7.462;2023-09-19T15:16:22;23.70;57.70
59234;DHT22;60776;51.702;7.462;2023-09-19T15:18:47;23.80;58.20
59234;DHT22;60776;51.702;7.462;2023-09-19T15:21:13;23.90;58.10
59234;DHT22;60776;51.702;7.462;2023-09-19T15:23:41;23.90;58.20
59234;DHT22;60776;51.702;7.462;2023-09-19T15:26:09;23.90;58.30
59234;DHT22;60776;51.702;7.462;2023-09-19T15:28:35;23.70;58.40
59234;DHT22;60776;51.702;7.462;2023-09-19T15:31:06;23.70;58.70
59234;DHT22;60776;51.702;7.462;2023-09-19T15:33:33;23.80;58.80
59234;DHT22;60776;51.702;7.462;2023-09-19T15:36:10;23.70;58.90
59234;DHT22;60776;51.702;7.462;2023-09-19T15:39:08;23.70;59.40
59234;DHT22;60776;51.702;7.462;2023-09-19T15:41:39;23.70;59.30
59234;DHT22;60776;51.702;7.462;2023-09-19T15:44:12;23.60;59.40
59234;DHT22;60776;51.702;7.462;2023-09-19T15:46:37;23.70;59.40
59234;DHT22;60776;51.702;7.462;2023-09-19T15:49:03;23.50;59.30
59234;DHT22;60776;51.702;7.462;2023-09-19T15:51:29;23.50;59.60
59234;DHT22;60776;51.702;7.462;2023-09-19T15:53:56;23.50;59.60
59234;DHT22;60776;51.702;7.462;2023-09-19T15:56:23;23.50;59.60
59234;DHT22;60776;51.702;7.462;2023-09-19T15:58:54;23.60;59.70
59234;DHT22;60776;51.702;7.462;2023-09-19T16:01:21;23.50;59.90
59234;DHT22;60776;51.702;7.462;2023-09-19T16:03:53;23.40;60.70
59234;DHT22;60776;51.702;7.462;2023-09-19T16:06:22;23.30;61.10
59234;DHT22;60776;51.702;7.462;2023-09-19T16:08:51;23.30;61.00
59234;DHT22;60776;51.702;7.462;2023-09-19T16:11:20;23.20;61.30
59234;DHT22;60776;51.702;7.462;2023-09-19T16:13:47;23.10;61.20
59234;DHT22;60776;51.702;7.462;2023-09-19T16:16:14;23.00;61.70
59234;DHT22;60776;51.702;7.462;2023-09-19T16:18:51;23.00;61.80
59234;DHT22;60776;51.702;7.462;2023-09-19T16:21:21;22.80;62.40
59234;DHT22;60776;51.702;7.462;2023-09-19T16:23:48;22.80;62.70
59234;DHT22;60776;51.702;7.462;2023-09-19T16:26:22;22.70;62.50
59234;DHT22;60776;51.702;7.462;2023-09-19T16:28:58;22.60;62.80
59234;DHT22;60776;51.702;7.462;2023-09-19T16:31:27;22.50;62.90
59234;DHT22;60776;51.702;7.462;2023-09-19T16:33:54;22.40;63.10